createdAt,value
2023-04-06T00:01:03.912Z,1.24
2023-04-06T00:03:30.937Z,1.08
2023-04-06T00:05:57.808Z,1.18
2023-04-06T00:08:25.013Z,1.10
2023-04-06T00:10:51.809Z,1.17
2023-04-06T00:13:18.540Z,1.19
2023-04-06T00:15:45.488Z,1.12
2023-04-06T00:18:12.539Z,1.09
2023-04-06T00:20:39.489Z,0.90
2023-04-06T00:23:06.667Z,0.83
2023-04-06T00:25:33.440Z,0.92
2023-04-06T00:28:00.597Z,1.04
2023-04-06T00:30:27.291Z,1.05
2023-04-06T00:32:54.097Z,0.91
2023-04-06T00:35:21.184Z,0.87
2023-04-06T00:37:49.276Z,0.82
2023-04-06T00:40:16.724Z,0.92
2023-04-06T00:42:43.518Z,0.82
2023-04-06T00:45:11.101Z,0.86
2023-04-06T00:47:38.136Z,0.83
2023-04-06T00:50:05.794Z,0.65
2023-04-06T00:52:32.578Z,0.69
2023-04-06T00:54:59.324Z,0.61
2023-04-06T00:57:26.065Z,0.58
2023-04-06T00:59:54.117Z,0.55
2023-04-06T01:02:21.071Z,0.62
2023-04-06T01:04:47.827Z,0.54
2023-04-06T01:07:14.544Z,0.60
2023-04-06T01:09:43.220Z,0.58
2023-04-06T01:12:10.264Z,0.55
2023-04-06T01:14:37.009Z,0.51
2023-04-06T01:17:03.910Z,0.63
2023-04-06T01:19:30.645Z,0.65
2023-04-06T01:21:57.504Z,0.45
2023-04-06T01:24:24.378Z,0.57
2023-04-06T01:26:51.083Z,0.49
2023-04-06T01:29:17.855Z,0.36
2023-04-06T01:31:44.592Z,0.28
2023-04-06T01:34:11.534Z,0.32
2023-04-06T01:36:38.277Z,0.34
2023-04-06T01:39:05.082Z,0.27
2023-04-06T01:41:32.185Z,0.35
2023-04-06T01:43:59.076Z,0.13
2023-04-06T01:46:25.921Z,0.07
2023-04-06T01:48:53.514Z,0.15
2023-04-06T01:51:20.911Z,0.01
2023-04-06T01:53:47.814Z,-0.01
2023-04-06T01:56:14.635Z,0.08
2023-04-06T01:58:41.419Z,-0.26
2023-04-06T02:01:08.347Z,-0.13
2023-04-06T02:03:35.272Z,-0.02
2023-04-06T02:06:02.010Z,0.10
2023-04-06T02:08:28.712Z,0.08
2023-04-06T02:10:55.482Z,-0.03
2023-04-06T02:13:22.286Z,0.01
2023-04-06T02:15:49.148Z,0.06
2023-04-06T02:18:16.618Z,-0.06
2023-04-06T02:20:43.589Z,-0.16
2023-04-06T02:23:10.548Z,-0.26
2023-04-06T02:25:37.601Z,-0.23
2023-04-06T02:28:04.754Z,-0.13
2023-04-06T02:30:33.090Z,-0.03
2023-04-06T02:33:01.702Z,-0.17
2023-04-06T02:35:29.738Z,-0.28
2023-04-06T02:37:56.603Z,-0.20
2023-04-06T02:40:23.572Z,-0.17
2023-04-06T02:42:50.302Z,-0.26
2023-04-06T02:45:17.528Z,-0.11
2023-04-06T02:47:44.296Z,-0.16
2023-04-06T02:50:11.407Z,-0.22
2023-04-06T02:52:38.252Z,-0.29
2023-04-06T02:55:05.969Z,-0.25
2023-04-06T02:57:32.789Z,-0.38
2023-04-06T02:59:59.600Z,-0.41
2023-04-06T03:02:26.909Z,-0.40
2023-04-06T03:04:53.709Z,-0.36
2023-04-06T03:07:20.574Z,-0.22
2023-04-06T03:09:47.388Z,-0.20
2023-04-06T03:12:14.136Z,-0.28
2023-04-06T03:14:40.882Z,-0.35
2023-04-06T03:17:07.733Z,-0.52
2023-04-06T03:19:34.442Z,-0.52
2023-04-06T03:22:01.902Z,-0.51
2023-04-06T03:24:28.702Z,-0.71
2023-04-06T03:26:56.249Z,-0.41
2023-04-06T03:29:23.208Z,-0.38
2023-04-06T03:31:49.995Z,-0.69
2023-04-06T03:34:17.125Z,-0.62
2023-04-06T03:36:44.222Z,-0.72
2023-04-06T03:39:11.075Z,-0.65
2023-04-06T03:41:37.875Z,-0.75
2023-04-06T03:44:04.871Z,-0.64
2023-04-06T03:46:31.652Z,-0.64
2023-04-06T03:48:58.598Z,-0.72
2023-04-06T03:51:25.361Z,-0.70
2023-04-06T03:53:52.654Z,-0.66
2023-04-06T03:56:19.450Z,-0.43
2023-04-06T03:58:46.761Z,-0.54
2023-04-06T04:01:14.112Z,-0.72
2023-04-06T04:03:41.070Z,-0.74
2023-04-06T04:06:07.939Z,-0.83
2023-04-06T04:08:34.999Z,-0.88
2023-04-06T04:11:01.822Z,-0.93
2023-04-06T04:13:28.889Z,-1.01
2023-04-06T04:15:55.648Z,-0.99
2023-04-06T04:18:22.796Z,-0.87
2023-04-06T04:20:49.561Z,-0.79
2023-04-06T04:23:16.910Z,-0.89
2023-04-06T04:25:44.989Z,-0.86
2023-04-06T04:28:12.308Z,-0.72
2023-04-06T04:30:39.051Z,-0.79
2023-04-06T04:33:06.059Z,-0.93
2023-04-06T04:35:32.784Z,-1.05
2023-04-06T04:37:59.534Z,-0.92
2023-04-06T04:40:26.414Z,-0.87
2023-04-06T04:42:53.146Z,-0.91
2023-04-06T04:45:20.018Z,-0.87
2023-04-06T04:47:46.770Z,-0.94
2023-04-06T04:50:13.498Z,-0.96
2023-04-06T04:52:40.252Z,-0.96
2023-04-06T04:55:07.387Z,-1.06
2023-04-06T04:57:34.198Z,-1.12
2023-04-06T05:00:01.036Z,-1.22
2023-04-06T05:02:27.989Z,-1.13
2023-04-06T05:04:54.879Z,-1.18
2023-04-06T05:07:22.137Z,-1.15
2023-04-06T05:09:49.221Z,-1.04
2023-04-06T05:12:16.460Z,-0.99
2023-04-06T05:14:43.385Z,-1.02
2023-04-06T05:17:10.286Z,-1.11
2023-04-06T05:19:37.102Z,-1.12
2023-04-06T05:22:03.944Z,-0.93
2023-04-06T05:24:30.728Z,-0.85
2023-04-06T05:26:57.498Z,-0.88
2023-04-06T05:29:24.334Z,-0.71
2023-04-06T05:31:52.392Z,-0.64
2023-04-06T05:34:19.194Z,-0.60
2023-04-06T05:36:45.914Z,-0.57
2023-04-06T05:39:13.738Z,-0.48
2023-04-06T05:41:40.672Z,-0.39
2023-04-06T05:44:07.480Z,-0.32
2023-04-06T05:46:34.325Z,-0.26
2023-04-06T05:49:01.608Z,-0.22
2023-04-06T05:51:28.705Z,-0.09
2023-04-06T05:53:55.467Z,-0.02
2023-04-06T05:56:22.294Z,0.03
2023-04-06T05:58:49.052Z,0.13
2023-04-06T06:01:16.539Z,0.22
2023-04-06T06:03:43.460Z,0.32
2023-04-06T06:06:10.247Z,0.42
2023-04-06T06:08:37.340Z,0.55
2023-04-06T06:11:04.602Z,0.68
2023-04-06T06:13:31.447Z,0.82
2023-04-06T06:15:58.658Z,0.91
2023-04-06T06:18:25.785Z,1.02
2023-04-06T06:20:52.535Z,1.05
2023-04-06T06:23:19.257Z,1.15
2023-04-06T06:25:46.426Z,1.31
2023-04-06T06:28:13.622Z,1.44
2023-04-06T06:30:40.357Z,1.42
2023-04-06T06:33:07.248Z,1.54
2023-04-06T06:35:34.003Z,1.73
2023-04-06T06:38:01.031Z,1.92
2023-04-06T06:40:28.693Z,2.05
2023-04-06T06:42:55.535Z,2.12
2023-04-06T06:45:22.614Z,2.12
2023-04-06T06:47:49.573Z,2.26
2023-04-06T06:50:16.551Z,2.33
2023-04-06T06:52:44.304Z,2.53
2023-04-06T06:55:12.145Z,2.70
2023-04-06T06:57:39.832Z,2.70
2023-04-06T07:00:09.424Z,2.74
2023-04-06T07:02:37.526Z,2.78
2023-04-06T07:05:16.051Z,2.90
2023-04-06T07:07:51.168Z,3.10
2023-04-06T07:10:17.906Z,3.18
2023-04-06T07:12:44.810Z,3.24
2023-04-06T07:15:12.280Z,3.35
2023-04-06T07:17:39.060Z,3.50
2023-04-06T07:20:07.007Z,3.69
2023-04-06T07:22:33.774Z,3.69
2023-04-06T07:25:00.551Z,3.79
2023-04-06T07:27:27.517Z,4.13
2023-04-06T07:29:54.199Z,4.23
2023-04-06T07:32:21.069Z,4.22
2023-04-06T07:34:48.171Z,4.36
2023-04-06T07:37:14.996Z,4.57
2023-04-06T07:39:41.976Z,4.86
2023-04-06T07:42:08.780Z,5.01
2023-04-06T07:44:35.582Z,4.83
2023-04-06T07:47:02.366Z,5.06
2023-04-06T07:49:29.199Z,5.30
2023-04-06T07:51:56.195Z,5.45
2023-04-06T07:54:22.910Z,5.63
2023-04-06T07:56:49.638Z,5.79
2023-04-06T07:59:16.830Z,5.56
2023-04-06T08:01:43.650Z,5.76
2023-04-06T08:04:10.991Z,5.89
2023-04-06T08:06:38.012Z,5.92
2023-04-06T08:09:04.781Z,6.18
2023-04-06T08:11:31.546Z,6.37
2023-04-06T08:13:58.877Z,6.39
2023-04-06T08:16:25.969Z,6.50
2023-04-06T08:18:52.694Z,6.68
2023-04-06T08:21:19.663Z,6.68
2023-04-06T08:23:47.379Z,7.08
2023-04-06T08:26:14.396Z,7.22
2023-04-06T08:28:41.251Z,7.16
2023-04-06T08:31:08.286Z,7.32
2023-04-06T08:33:40.501Z,7.42
2023-04-06T08:36:15.164Z,7.55
2023-04-06T08:38:44.072Z,7.68
2023-04-06T08:41:14.961Z,7.81
2023-04-06T08:43:49.569Z,8.02
2023-04-06T08:46:16.752Z,8.01
2023-04-06T08:48:44.251Z,7.94
2023-04-06T08:51:14.782Z,7.96
2023-04-06T08:53:42.135Z,8.08
2023-04-06T08:56:11.326Z,8.41
2023-04-06T08:58:40.906Z,8.63
2023-04-06T09:01:10.204Z,8.39
2023-04-06T09:03:41.809Z,8.67
2023-04-06T09:06:09.666Z,8.91
2023-04-06T09:08:37.532Z,9.08
2023-04-06T09:11:04.744Z,9.23
2023-04-06T09:13:32.229Z,9.46
2023-04-06T09:16:03.540Z,9.43
2023-04-06T09:18:34.969Z,9.72
2023-04-06T09:21:06.717Z,9.90
2023-04-06T09:23:33.674Z,9.95
2023-04-06T09:26:12.404Z,10.11
2023-04-06T09:28:43.759Z,10.22
2023-04-06T09:31:13.445Z,10.37
2023-04-06T09:33:43.028Z,10.33
2023-04-06T09:36:12.668Z,10.22
2023-04-06T09:38:52.094Z,10.32
2023-04-06T09:41:26.799Z,10.53
2023-04-06T09:44:02.615Z,10.73
2023-04-06T09:46:43.009Z,10.95
2023-04-06T09:49:19.035Z,11.10
2023-04-06T09:51:55.649Z,11.05
2023-04-06T09:54:24.521Z,11.20
2023-04-06T09:57:22.274Z,11.17
2023-04-06T10:00:05.273Z,11.31
2023-04-06T10:03:21.766Z,11.40
2023-04-06T10:05:53.899Z,11.32
2023-04-06T10:08:26.667Z,11.38
2023-04-06T10:10:55.030Z,11.25
2023-04-06T10:13:22.235Z,11.06
2023-04-06T10:15:49.591Z,11.39
2023-04-06T10:18:17.243Z,11.52
2023-04-06T10:20:58.960Z,11.66
2023-04-06T10:23:32.708Z,11.75
2023-04-06T10:26:03.898Z,11.80
2023-04-06T10:28:37.094Z,11.80
2023-04-06T10:31:06.979Z,11.92
2023-04-06T10:33:34.880Z,11.95
2023-04-06T10:36:23.781Z,12.08
2023-04-06T10:38:56.821Z,11.85
2023-04-06T10:41:23.957Z,11.74
2023-04-06T10:43:58.032Z,11.85
2023-04-06T10:46:29.746Z,11.77
2023-04-06T10:48:57.529Z,11.92
2023-04-06T10:51:29.374Z,12.17
2023-04-06T10:53:57.159Z,12.30
2023-04-06T10:56:30.472Z,12.52
2023-04-06T10:59:01.265Z,12.50
2023-04-06T11:01:29.069Z,12.33
2023-04-06T11:03:59.399Z,12.43
2023-04-06T11:06:32.630Z,12.25
2023-04-06T11:08:59.689Z,12.45
2023-04-06T11:11:28.174Z,12.60
2023-04-06T11:13:57.665Z,12.73
2023-04-06T11:16:25.719Z,12.93
2023-04-06T11:19:03.234Z,13.23
2023-04-06T11:21:48.982Z,13.26
2023-04-06T11:24:23.457Z,13.10
2023-04-06T11:26:56.284Z,13.07
2023-04-06T11:29:29.408Z,13.08
2023-04-06T11:32:04.300Z,12.97
2023-04-06T11:34:32.283Z,12.95
2023-04-06T11:37:01.126Z,12.98
2023-04-06T11:39:29.675Z,13.17
2023-04-06T11:42:01.721Z,13.31
2023-04-06T11:44:36.943Z,13.58
2023-04-06T11:47:04.941Z,13.77
2023-04-06T11:49:33.134Z,13.63
2023-04-06T11:52:01.257Z,13.74
2023-04-06T11:54:42.192Z,13.80
2023-04-06T11:57:10.004Z,13.69
2023-04-06T11:59:37.401Z,13.23
2023-04-06T12:02:05.479Z,13.35
2023-04-06T12:04:32.682Z,13.51
2023-04-06T12:06:59.814Z,13.57
2023-04-06T12:09:26.715Z,13.62
2023-04-06T12:11:53.434Z,13.77
2023-04-06T12:14:21.354Z,13.75
2023-04-06T12:16:48.655Z,13.60
2023-04-06T12:19:15.787Z,13.72
2023-04-06T12:21:43.913Z,13.93
2023-04-06T12:24:10.779Z,14.12
2023-04-06T12:26:38.650Z,14.32
2023-04-06T12:29:09.084Z,14.25
2023-04-06T12:31:37.635Z,14.28
2023-04-06T12:34:05.104Z,14.15
2023-04-06T12:36:32.652Z,14.27
2023-04-06T12:38:59.598Z,14.29
2023-04-06T12:41:26.934Z,14.34
2023-04-06T12:43:53.789Z,14.43
2023-04-06T12:46:23.670Z,14.50
2023-04-06T12:48:58.932Z,14.60
2023-04-06T12:51:29.811Z,14.46
2023-04-06T12:53:57.053Z,14.51
2023-04-06T12:56:24.146Z,14.54
2023-04-06T12:58:52.992Z,14.57
2023-04-06T13:01:20.068Z,14.74
2023-04-06T13:03:47.101Z,14.86
2023-04-06T13:06:16.106Z,14.79
2023-04-06T13:08:44.094Z,14.83
2023-04-06T13:11:11.255Z,14.76
2023-04-06T13:13:38.476Z,14.87
2023-04-06T13:16:08.189Z,14.76
2023-04-06T13:18:35.976Z,14.84
2023-04-06T13:21:02.897Z,14.77
2023-04-06T13:23:29.756Z,14.89
2023-04-06T13:26:04.446Z,14.85
2023-04-06T13:28:32.188Z,15.03
2023-04-06T13:31:01.020Z,14.91
2023-04-06T13:33:28.072Z,14.93
2023-04-06T13:35:55.077Z,14.75
2023-04-06T13:38:22.122Z,14.85
2023-04-06T13:40:51.048Z,14.92
2023-04-06T13:43:21.083Z,14.79
2023-04-06T13:45:52.216Z,14.90
2023-04-06T13:48:19.825Z,14.87
2023-04-06T13:50:47.274Z,14.71
2023-04-06T13:53:17.678Z,14.61
2023-04-06T13:55:54.271Z,14.58
2023-04-06T13:58:21.276Z,14.60
2023-04-06T14:00:48.444Z,14.59
2023-04-06T14:03:18.885Z,14.40
2023-04-06T14:05:46.706Z,14.40
2023-04-06T14:08:13.466Z,14.40
2023-04-06T14:10:41.697Z,14.40
2023-04-06T14:13:09.365Z,14.52
2023-04-06T14:15:36.616Z,14.38
2023-04-06T14:18:03.716Z,14.27
2023-04-06T14:20:33.447Z,14.01
2023-04-06T14:23:04.058Z,13.92
2023-04-06T14:25:35.975Z,13.76
2023-04-06T14:28:03.400Z,13.71
2023-04-06T14:30:31.784Z,13.66
2023-04-06T14:32:59.484Z,13.84
2023-04-06T14:35:26.744Z,14.05
2023-04-06T14:37:54.041Z,14.07
2023-04-06T14:40:20.746Z,14.12
2023-04-06T14:42:47.866Z,13.90
2023-04-06T14:45:15.271Z,14.00
2023-04-06T14:47:42.046Z,13.88
2023-04-06T14:50:10.007Z,13.78
2023-04-06T14:52:37.631Z,13.86
2023-04-06T14:55:05.615Z,13.77
2023-04-06T14:57:32.541Z,13.76
2023-04-06T14:59:59.488Z,13.73
2023-04-06T15:02:27.051Z,13.66
2023-04-06T15:04:54.142Z,13.77
2023-04-06T15:07:21.808Z,13.91
2023-04-06T15:09:48.519Z,14.04
2023-04-06T15:12:15.260Z,14.22
2023-04-06T15:14:41.987Z,14.33
2023-04-06T15:17:08.701Z,14.24
2023-04-06T15:19:35.568Z,14.30
2023-04-06T15:22:02.335Z,14.44
2023-04-06T15:24:29.042Z,14.44
2023-04-06T15:26:57.171Z,14.53
2023-04-06T15:29:26.677Z,14.42
2023-04-06T15:31:53.482Z,14.39
2023-04-06T15:34:21.504Z,14.40
2023-04-06T15:36:48.280Z,14.32
2023-04-06T15:39:15.113Z,14.19
2023-04-06T15:41:41.809Z,14.29
2023-04-06T15:44:08.603Z,14.25
2023-04-06T15:46:36.336Z,14.18
2023-04-06T15:49:04.522Z,14.08
2023-04-06T15:51:32.118Z,14.09
2023-04-06T15:54:00.679Z,14.02
2023-04-06T15:56:27.405Z,14.05
2023-04-06T15:58:54.713Z,13.77
2023-04-06T16:01:21.685Z,13.66
2023-04-06T16:03:48.510Z,13.47
2023-04-06T16:06:16.065Z,13.30
2023-04-06T16:08:42.968Z,13.42
2023-04-06T16:11:10.509Z,13.28
2023-04-06T16:13:37.412Z,13.31
2023-04-06T16:16:05.841Z,13.41
2023-04-06T16:18:34.930Z,13.28
2023-04-06T16:21:03.927Z,13.30
2023-04-06T16:23:30.868Z,13.21
2023-04-06T16:26:01.058Z,13.15
2023-04-06T16:28:27.965Z,13.11
2023-04-06T16:30:55.348Z,13.11
2023-04-06T16:33:23.463Z,13.02
2023-04-06T16:35:50.314Z,12.93
2023-04-06T16:38:17.128Z,12.93
2023-04-06T16:40:43.907Z,12.84
2023-04-06T16:43:10.840Z,12.85
2023-04-06T16:45:38.775Z,12.72
2023-04-06T16:48:06.390Z,12.73
2023-04-06T16:50:33.888Z,12.71
2023-04-06T16:53:00.743Z,12.68
2023-04-06T16:55:27.464Z,12.54
2023-04-06T16:57:57.298Z,12.47
2023-04-06T17:00:24.246Z,12.49
2023-04-06T17:02:51.281Z,12.41
2023-04-06T17:05:24.932Z,12.31
2023-04-06T17:07:52.956Z,12.30
2023-04-06T17:10:28.639Z,12.23
2023-04-06T17:13:00.549Z,12.17
2023-04-06T17:15:28.647Z,12.09
2023-04-06T17:17:55.636Z,11.97
2023-04-06T17:20:22.833Z,11.89
2023-04-06T17:22:49.841Z,11.98
2023-04-06T17:25:16.951Z,11.81
2023-04-06T17:27:44.498Z,11.71
2023-04-06T17:30:12.503Z,11.71
2023-04-06T17:32:39.390Z,11.50
2023-04-06T17:35:06.597Z,11.48
2023-04-06T17:37:33.726Z,11.33
2023-04-06T17:40:00.795Z,11.26
2023-04-06T17:42:27.946Z,11.10
2023-04-06T17:44:54.632Z,11.00
2023-04-06T17:47:21.491Z,11.01
2023-04-06T17:49:49.346Z,10.82
2023-04-06T17:52:16.284Z,10.72
2023-04-06T17:54:43.306Z,10.63
2023-04-06T17:57:10.028Z,10.45
2023-04-06T17:59:36.787Z,10.32
2023-04-06T18:02:04.572Z,10.23
2023-04-06T18:04:31.587Z,10.19
2023-04-06T18:06:58.590Z,10.13
2023-04-06T18:11:53.244Z,9.89
2023-04-06T18:14:20.142Z,9.68
2023-04-06T18:16:46.845Z,9.49
2023-04-06T18:19:13.866Z,9.47
2023-04-06T18:21:40.558Z,9.45
2023-04-06T18:24:08.048Z,9.46
2023-04-06T18:26:37.338Z,9.26
2023-04-06T18:29:07.318Z,9.15
2023-04-06T18:31:37.484Z,9.17
2023-04-06T18:34:05.098Z,8.98
2023-04-06T18:36:32.235Z,8.94
2023-04-06T18:39:00.265Z,8.91
2023-04-06T18:41:29.981Z,8.55
2023-04-06T18:43:56.960Z,8.33
2023-04-06T18:46:25.214Z,8.26
2023-04-06T18:48:52.569Z,8.17
2023-04-06T18:51:19.481Z,8.20
2023-04-06T18:53:46.351Z,8.04
2023-04-06T18:56:19.022Z,8.07
2023-04-06T18:58:46.598Z,7.98
2023-04-06T19:01:29.412Z,8.00
2023-04-06T19:03:57.580Z,7.88
2023-04-06T19:06:27.623Z,7.81
2023-04-06T19:08:55.314Z,7.59
2023-04-06T19:11:25.436Z,7.39
2023-04-06T19:13:54.047Z,7.29
2023-04-06T19:16:21.030Z,7.30
2023-04-06T19:18:47.943Z,7.09
2023-04-06T19:21:19.573Z,7.19
2023-04-06T19:23:47.096Z,6.99
2023-04-06T19:26:15.364Z,7.04
2023-04-06T19:28:43.585Z,7.03
2023-04-06T19:31:13.998Z,6.93
2023-04-06T19:33:41.087Z,6.79
2023-04-06T19:36:08.727Z,6.65
2023-04-06T19:38:35.827Z,6.72
2023-04-06T19:41:02.723Z,6.64
2023-04-06T19:43:29.862Z,6.75
2023-04-06T19:45:56.914Z,6.78
2023-04-06T19:48:23.938Z,6.64
2023-04-06T19:50:53.987Z,6.65
2023-04-06T19:53:21.935Z,6.35
2023-04-06T19:55:48.757Z,6.38
2023-04-06T19:58:15.609Z,6.39
2023-04-06T20:00:42.427Z,6.40
2023-04-06T20:03:09.409Z,6.25
2023-04-06T20:05:36.583Z,6.24
2023-04-06T20:08:03.358Z,6.11
2023-04-06T20:10:30.998Z,5.99
2023-04-06T20:12:58.817Z,5.98
2023-04-06T20:15:25.752Z,5.98
2023-04-06T20:17:52.806Z,5.70
2023-04-06T20:20:19.663Z,5.79
2023-04-06T20:22:50.243Z,5.52
2023-04-06T20:25:18.446Z,5.54
2023-04-06T20:27:45.904Z,5.56
2023-04-06T20:30:16.332Z,5.54
2023-04-06T20:32:43.504Z,5.72
2023-04-06T20:35:10.437Z,5.51
2023-04-06T20:37:38.095Z,5.52
2023-04-06T20:40:05.899Z,5.34
2023-04-06T20:42:32.746Z,5.36
2023-04-06T20:44:59.770Z,5.34
2023-04-06T20:47:27.442Z,5.19
2023-04-06T20:49:54.816Z,5.33
2023-04-06T20:52:21.582Z,5.36
2023-04-06T20:54:48.915Z,5.27
2023-04-06T20:57:15.731Z,5.18
2023-04-06T20:59:42.714Z,5.19
2023-04-06T21:02:09.695Z,5.16
2023-04-06T21:04:37.352Z,4.78
2023-04-06T21:07:05.958Z,4.96
2023-04-06T21:09:36.038Z,4.92
2023-04-06T21:12:03.843Z,4.75
2023-04-06T21:14:30.846Z,4.88
2023-04-06T21:16:58.348Z,4.75
2023-04-06T21:19:28.230Z,4.73
2023-04-06T21:21:55.431Z,4.90
2023-04-06T21:24:22.296Z,4.90
2023-04-06T21:26:49.248Z,4.95
2023-04-06T21:29:16.202Z,4.97
2023-04-06T21:31:43.132Z,4.83
2023-04-06T21:34:13.669Z,4.76
2023-04-06T21:36:41.731Z,4.52
2023-04-06T21:39:08.984Z,4.68
2023-04-06T21:41:36.985Z,4.74
2023-04-06T21:44:03.974Z,4.56
2023-04-06T21:46:30.781Z,4.53
2023-04-06T21:48:57.489Z,4.43
2023-04-06T21:51:24.783Z,4.40
2023-04-06T21:53:54.534Z,4.46
2023-04-06T21:56:22.872Z,4.49
2023-04-06T21:58:50.465Z,4.45
2023-04-06T22:01:17.964Z,4.21
2023-04-06T22:03:45.642Z,4.26
2023-04-06T22:06:12.773Z,4.35
2023-04-06T22:08:39.568Z,4.37
2023-04-06T22:11:08.914Z,4.41
2023-04-06T22:13:36.467Z,4.33
2023-04-06T22:16:03.677Z,4.34
2023-04-06T22:18:31.444Z,4.19
2023-04-06T22:20:58.379Z,4.38
2023-04-06T22:23:26.032Z,4.34
2023-04-06T22:25:53.211Z,4.34
2023-04-06T22:28:20.027Z,4.47
2023-04-06T22:30:46.850Z,4.35
2023-04-06T22:33:13.679Z,3.92
2023-04-06T22:35:40.728Z,4.27
2023-04-06T22:38:07.718Z,4.10
2023-04-06T22:40:34.606Z,4.11
2023-04-06T22:43:01.928Z,3.78
2023-04-06T22:45:28.660Z,3.84
2023-04-06T22:47:55.835Z,3.90
2023-04-06T22:50:22.916Z,3.90
2023-04-06T22:52:50.080Z,3.74
2023-04-06T22:55:17.349Z,3.67
2023-04-06T22:57:44.172Z,3.72
2023-04-06T23:00:12.705Z,3.77
2023-04-06T23:02:39.699Z,3.79
2023-04-06T23:05:07.274Z,3.73
2023-04-06T23:07:36.110Z,3.77
2023-04-06T23:10:03.578Z,3.76
2023-04-06T23:12:30.706Z,3.69
2023-04-06T23:14:57.998Z,3.81
2023-04-06T23:17:25.182Z,3.39
2023-04-06T23:19:52.521Z,3.39
2023-04-06T23:22:19.461Z,3.66
2023-04-06T23:24:46.735Z,3.85
2023-04-06T23:27:13.543Z,3.78
2023-04-06T23:29:40.456Z,3.68
2023-04-06T23:32:11.851Z,3.75
2023-04-06T23:34:50.951Z,3.62
2023-04-06T23:37:21.016Z,3.57
2023-04-06T23:39:48.813Z,3.37
2023-04-06T23:42:16.014Z,3.52
2023-04-06T23:44:44.328Z,3.40
2023-04-06T23:47:12.423Z,3.36
2023-04-06T23:49:40.589Z,3.39
2023-04-06T23:52:08.455Z,3.23
2023-04-06T23:54:35.214Z,3.31
2023-04-06T23:57:02.354Z,3.20
2023-04-06T23:59:29.200Z,3.18
